createdAt,value
2022-08-05T00:08:37.926Z,99923.84
2022-08-05T00:18:39.272Z,99947.78
2022-08-05T00:28:40.629Z,99953.88
2022-08-05T00:38:42.363Z,99960.38
2022-08-05T00:48:51.396Z,99954.97
2022-08-05T00:58:52.915Z,99932.06
2022-08-05T01:08:55.003Z,99909.16
2022-08-05T01:18:56.752Z,99931.19
2022-08-05T01:28:58.159Z,99926.97
2022-08-05T01:39:05.791Z,99924.41
2022-08-05T01:49:22.661Z,99945.44
2022-08-05T01:59:26.028Z,99961.22
2022-08-05T02:09:27.394Z,99996.66
2022-08-05T02:19:34.200Z,99998.91
2022-08-05T02:29:58.434Z,99990.75
2022-08-05T02:39:57.534Z,100017.22
2022-08-05T02:49:58.875Z,99983.53
2022-08-05T03:00:02.207Z,99930.06
2022-08-05T03:10:03.584Z,99932.13
2022-08-05T03:20:05.379Z,99975.34
2022-08-05T03:30:09.102Z,100052.91
2022-08-05T03:40:11.869Z,100045.34
2022-08-05T03:50:13.487Z,100071.34
2022-08-05T04:00:16.415Z,100104.28
2022-08-05T04:10:17.961Z,100147.88
2022-08-05T04:20:20.030Z,100168.81
2022-08-05T04:30:21.335Z,100198.97
2022-08-05T04:40:22.692Z,100208.28
2022-08-05T04:50:37.294Z,100245.72
2022-08-05T05:00:45.573Z,100261.94
2022-08-05T05:10:55.899Z,100244.91
2022-08-05T05:20:58.574Z,100245.03
2022-08-05T05:31:00.111Z,100243.59
2022-08-05T05:41:01.926Z,100234.81
2022-08-05T05:51:15.168Z,100257.59
2022-08-05T06:01:17.269Z,100252.28
2022-08-05T06:11:24.721Z,100246.75
2022-08-05T06:21:36.668Z,100270.63
2022-08-05T06:31:39.163Z,100268.19
2022-08-05T06:41:43.374Z,100267.31
2022-08-05T06:51:45.092Z,100279.00
2022-08-05T07:01:46.427Z,100302.16
2022-08-05T07:11:55.837Z,100311.19
2022-08-05T07:22:02.734Z,100304.66
2022-08-05T07:32:04.110Z,100322.13
2022-08-05T07:42:08.574Z,100300.78
2022-08-05T07:52:16.213Z,100314.44
2022-08-05T08:02:19.451Z,100309.44
2022-08-05T08:12:48.705Z,100247.47
2022-08-05T08:22:49.464Z,100207.63
2022-08-05T08:32:51.169Z,100181.91
2022-08-05T08:42:52.828Z,100188.44
2022-08-05T08:52:54.485Z,100173.06
2022-08-05T09:02:57.103Z,100199.72
2022-08-05T09:13:04.980Z,100215.31
2022-08-05T09:23:07.831Z,100213.88
2022-08-05T09:33:10.677Z,100228.59
2022-08-05T09:43:18.427Z,100234.53
2022-08-05T09:53:25.964Z,100223.28
2022-08-05T10:03:58.606Z,100219.78
2022-08-05T10:14:00.569Z,100216.28
2022-08-05T10:24:04.129Z,100222.56
2022-08-05T10:34:08.961Z,100216.47
2022-08-05T10:44:10.315Z,100217.25
2022-08-05T10:54:28.606Z,100214.91
2022-08-05T11:04:34.373Z,100215.31
2022-08-05T11:26:03.374Z,100235.88
2022-08-05T11:35:21.623Z,100225.66
2022-08-05T11:46:30.601Z,100237.16
2022-08-05T11:55:48.769Z,100236.47
2022-08-05T12:05:54.752Z,100243.34
2022-08-05T12:15:57.118Z,100228.97
2022-08-05T12:25:59.690Z,100232.81
2022-08-05T12:36:01.058Z,100235.91
2022-08-05T12:46:02.445Z,100249.47
2022-08-05T12:56:03.935Z,100263.44
2022-08-05T13:06:05.530Z,100264.94
2022-08-05T13:16:06.790Z,100272.72
2022-08-05T13:26:12.027Z,100284.13
2022-08-05T13:36:15.141Z,100278.06
2022-08-05T13:46:35.745Z,100287.31
2022-08-05T13:56:38.377Z,100275.66
2022-08-05T14:06:39.703Z,100273.88
2022-08-05T14:16:51.123Z,100260.38
2022-08-05T14:27:17.213Z,100257.78
2022-08-05T14:37:17.970Z,100250.91
2022-08-05T14:47:58.277Z,100257.69
2022-08-05T14:57:54.302Z,100256.53
2022-08-05T15:08:06.502Z,100261.78
2022-08-05T15:18:14.729Z,100271.72
2022-08-05T15:28:18.787Z,100280.91
2022-08-05T15:38:35.815Z,100292.41
2022-08-05T15:48:38.059Z,100304.09
2022-08-05T15:58:56.208Z,100323.38
2022-08-05T16:08:57.988Z,100334.81
2022-08-05T16:18:59.421Z,100385.63
2022-08-05T16:29:01.693Z,100399.91
2022-08-05T16:39:03.588Z,100416.03
2022-08-05T16:49:05.942Z,100438.06
2022-08-05T16:59:08.932Z,100433.84
2022-08-05T17:09:10.243Z,100448.09
2022-08-05T17:19:11.856Z,100447.13
2022-08-05T17:29:13.371Z,100461.94
2022-08-05T17:39:23.668Z,100489.22
2022-08-05T17:49:25.954Z,100493.00
2022-08-05T17:59:52.795Z,100506.22
2022-08-05T18:10:09.990Z,100526.13
2022-08-05T18:20:14.871Z,100541.88
2022-08-05T18:30:16.364Z,100547.13
2022-08-05T18:40:34.425Z,100566.59
2022-08-05T18:52:03.340Z,100576.75
2022-08-05T19:01:19.446Z,100602.41
2022-08-05T19:11:37.064Z,100629.88
2022-08-05T19:21:56.193Z,100653.84
2022-08-05T19:32:00.239Z,100656.81
2022-08-05T19:42:07.823Z,100664.53
2022-08-05T19:52:40.301Z,100700.13
2022-08-05T20:02:33.501Z,100695.63
2022-08-05T20:12:37.294Z,100710.75
2022-08-05T20:22:38.599Z,100735.50
2022-08-05T20:32:45.101Z,100740.69
2022-08-05T20:42:46.935Z,100763.31
2022-08-05T20:52:48.330Z,100777.44
2022-08-05T21:02:57.046Z,100789.63
2022-08-05T21:13:11.202Z,100780.44
2022-08-05T21:23:16.088Z,100786.28
2022-08-05T21:33:22.267Z,100794.53
2022-08-05T21:43:25.154Z,100806.47
2022-08-05T21:53:27.509Z,100827.59
2022-08-05T22:03:48.285Z,100830.88
2022-08-05T22:14:19.586Z,100834.66
2022-08-05T22:24:40.533Z,100863.03
2022-08-05T22:34:42.424Z,100871.56
2022-08-05T22:44:48.496Z,100878.44
2022-08-05T22:54:58.207Z,100894.47
2022-08-05T23:05:01.607Z,100909.91
2022-08-05T23:15:08.455Z,100914.50
2022-08-05T23:25:11.488Z,100928.28
2022-08-05T23:35:12.840Z,100945.75
2022-08-05T23:45:15.835Z,100969.84
2022-08-05T23:55:17.275Z,100975.72
